Time;durP1;ratioP1;P1;durP2;ratioP2;P2;SDS_P1;SDS_P2;PMS_P1;PMS_P2;Temp;Humidity;BMP_temperature;BMP_pressure;BME280_temperature;BME280_humidity;BME280_pressure;Samples;Min_cycle;Max_cycle;Signal;HPM_P1;HPM_P2
2021/03/18 00:01:48;;;;;;;5.43;4.17;;;;;;;;;;5031784;28;20443;-73
2021/03/18 00:04:16;;;;;;;4.90;4.10;;;;;;;;;;5027757;28;20437;-73
2021/03/18 00:06:42;;;;;;;8.70;5.47;;;;;;;;;;5034566;28;20456;-73
2021/03/18 00:09:09;;;;;;;5.20;3.97;;;;;;;;;;5033623;28;20511;-73
2021/03/18 00:11:37;;;;;;;8.30;4.10;;;;;;;;;;5034210;28;20890;-72
2021/03/18 00:14:03;;;;;;;7.67;4.90;;;;;;;;;;5032451;28;20432;-72
2021/03/18 00:16:29;;;;;;;8.33;5.17;;;;;;;;;;5034104;28;20985;-72
2021/03/18 00:18:56;;;;;;;6.83;4.60;;;;;;;;;;5033686;28;20427;-72
2021/03/18 00:21:23;;;;;;;11.00;5.33;;;;;;;;;;5034044;28;20430;-72
2021/03/18 00:23:49;;;;;;;8.17;4.80;;;;;;;;;;5032447;28;20427;-72
2021/03/18 00:26:17;;;;;;;7.00;5.70;;;;;;;;;;5033001;28;20666;-72
2021/03/18 00:28:43;;;;;;;9.40;5.30;;;;;;;;;;5031472;28;20499;-72
2021/03/18 00:31:09;;;;;;;5.77;4.43;;;;;;;;;;5018337;28;20860;-72
2021/03/18 00:33:35;;;;;;;9.13;4.57;;;;;;;;;;5033057;28;20391;-72
2021/03/18 00:36:01;;;;;;;6.40;4.83;;;;;;;;;;5029817;28;20763;-73
2021/03/18 00:38:28;;;;;;;5.30;4.23;;;;;;;;;;5025324;28;20869;-73
2021/03/18 00:40:59;;;;;;;6.33;4.70;;;;;;;;;;5015149;28;20957;-73
2021/03/18 00:43:25;;;;;;;8.00;5.50;;;;;;;;;;5032735;28;20476;-74
2021/03/18 00:45:51;;;;;;;7.10;4.73;;;;;;;;;;5035532;28;20821;-73
2021/03/18 00:48:19;;;;;;;9.33;4.80;;;;;;;;;;5035901;28;20410;-72
2021/03/18 00:50:53;;;;;;;9.33;5.37;;;;;;;;;;5033254;28;20814;-73
2021/03/18 00:53:21;;;;;;;12.07;7.27;;;;;;;;;;5034898;28;20405;-72
2021/03/18 00:55:47;;;;;;;6.67;5.20;;;;;;;;;;5034537;28;20435;-72
2021/03/18 00:58:13;;;;;;;8.23;5.43;;;;;;;;;;5032963;28;20438;-72
2021/03/18 01:00:44;;;;;;;14.30;6.47;;;;;;;;;;5033112;28;20457;-72
2021/03/18 01:03:11;;;;;;;11.03;5.77;;;;;;;;;;5033951;28;20405;-71
2021/03/18 01:05:43;;;;;;;12.30;5.33;;;;;;;;;;5032630;28;20465;-72
2021/03/18 01:08:09;;;;;;;8.80;5.90;;;;;;;;;;5033911;28;20437;-72
2021/03/18 01:10:40;;;;;;;10.60;6.30;;;;;;;;;;5033042;28;20452;-72
2021/03/18 01:13:06;;;;;;;8.47;5.97;;;;;;;;;;5033589;28;20408;-73
2021/03/18 01:15:33;;;;;;;7.67;5.63;;;;;;;;;;5030814;28;20520;-71
2021/03/18 01:17:59;;;;;;;9.87;5.83;;;;;;;;;;5033654;28;20414;-72
2021/03/18 01:20:25;;;;;;;6.77;5.23;;;;;;;;;;5032628;28;20479;-72
2021/03/18 01:22:51;;;;;;;14.23;6.20;;;;;;;;;;5033458;28;20421;-72
2021/03/18 01:25:17;;;;;;;11.03;6.50;;;;;;;;;;5032917;28;20464;-72
2021/03/18 01:27:43;;;;;;;6.40;4.40;;;;;;;;;;5033420;28;20410;-72
2021/03/18 01:30:15;;;;;;;12.20;5.37;;;;;;;;;;5030823;28;20464;-72
2021/03/18 01:32:41;;;;;;;7.13;5.10;;;;;;;;;;5013585;28;20407;-72
2021/03/18 01:35:12;;;;;;;8.77;5.93;;;;;;;;;;5019996;28;20524;-72
2021/03/18 01:37:39;;;;;;;13.13;5.30;;;;;;;;;;5033188;28;20412;-72
2021/03/18 01:40:06;;;;;;;7.93;4.87;;;;;;;;;;5032234;28;20464;-72
2021/03/18 01:42:32;;;;;;;6.90;4.73;;;;;;;;;;5032858;28;20433;-72
2021/03/18 01:44:58;;;;;;;8.40;4.93;;;;;;;;;;5026612;28;20447;-72
2021/03/18 01:47:24;;;;;;;12.90;6.03;;;;;;;;;;5013570;28;20435;-72
2021/03/18 01:49:50;;;;;;;9.00;5.83;;;;;;;;;;5016693;28;20523;-72
2021/03/18 01:52:16;;;;;;;9.00;4.83;;;;;;;;;;5032895;28;20932;-72
2021/03/18 01:54:42;;;;;;;11.87;5.80;;;;;;;;;;5030230;28;20512;-72
2021/03/18 01:57:08;;;;;;;8.27;6.07;;;;;;;;;;5013859;28;20433;-72
2021/03/18 01:59:35;;;;;;;9.70;5.87;;;;;;;;;;5012009;28;20415;-72
2021/03/18 02:02:01;;;;;;;11.37;6.40;;;;;;;;;;5015232;28;20423;-72
2021/03/18 02:04:27;;;;;;;12.20;6.10;;;;;;;;;;5016902;28;20402;-73
2021/03/18 02:06:53;;;;;;;11.30;5.73;;;;;;;;;;5036342;28;20463;-72
2021/03/18 02:09:19;;;;;;;10.27;5.57;;;;;;;;;;5036578;28;20405;-72
2021/03/18 02:11:45;;;;;;;24.47;6.10;;;;;;;;;;5035959;28;20446;-72
2021/03/18 02:14:12;;;;;;;11.07;7.00;;;;;;;;;;5036813;28;20490;-72
2021/03/18 02:16:40;;;;;;;11.50;6.70;;;;;;;;;;5034641;28;20944;-72
2021/03/18 02:19:25;;;;;;;14.60;7.07;;;;;;;;;;5036367;28;20474;-72
2021/03/18 02:22:11;;;;;;;10.13;6.20;;;;;;;;;;5035538;28;20470;-72
2021/03/18 02:24:51;;;;;;;8.57;5.63;;;;;;;;;;5020471;28;20468;-72
2021/03/18 02:27:35;;;;;;;9.77;6.63;;;;;;;;;;5026400;28;20428;-72
2021/03/18 02:30:01;;;;;;;13.40;6.40;;;;;;;;;;5036475;28;20430;-72
2021/03/18 02:32:30;;;;;;;10.07;6.43;;;;;;;;;;5036557;28;20439;-72
2021/03/18 02:35:06;;;;;;;15.73;5.77;;;;;;;;;;5037522;28;20828;-72
2021/03/18 02:37:32;;;;;;;12.53;6.10;;;;;;;;;;5037381;28;20407;-72
2021/03/18 02:40:09;;;;;;;12.53;7.57;;;;;;;;;;5038449;28;20444;-72
2021/03/18 02:42:36;;;;;;;11.43;6.67;;;;;;;;;;5037130;28;20456;-72
2021/03/18 02:45:04;;;;;;;7.70;5.53;;;;;;;;;;5037259;28;20406;-73
2021/03/18 02:47:32;;;;;;;18.83;6.90;;;;;;;;;;5032993;28;20458;-72
2021/03/18 02:49:59;;;;;;;16.00;7.53;;;;;;;;;;5036262;28;20415;-72
2021/03/18 02:52:29;;;;;;;12.83;6.90;;;;;;;;;;5034787;28;20948;-72
2021/03/18 02:54:56;;;;;;;13.10;7.00;;;;;;;;;;5037765;28;20406;-72
2021/03/18 02:57:23;;;;;;;12.20;6.73;;;;;;;;;;5035209;28;20430;-72
2021/03/18 02:59:50;;;;;;;19.40;7.60;;;;;;;;;;5038932;28;20479;-72
2021/03/18 03:02:21;;;;;;;11.70;7.07;;;;;;;;;;5038166;28;20450;-72
2021/03/18 03:04:48;;;;;;;13.90;6.60;;;;;;;;;;5038139;28;20402;-72
2021/03/18 03:07:15;;;;;;;18.00;6.10;;;;;;;;;;5034993;28;20873;-72
2021/03/18 03:09:42;;;;;;;16.70;7.87;;;;;;;;;;5035599;28;20411;-72
2021/03/18 03:12:09;;;;;;;11.57;7.03;;;;;;;;;;5034605;28;20953;-72
2021/03/18 03:14:36;;;;;;;15.07;7.53;;;;;;;;;;5033798;28;20459;-72
2021/03/18 03:17:02;;;;;;;16.43;7.73;;;;;;;;;;5034610;28;20435;-72
2021/03/18 03:19:29;;;;;;;15.37;7.40;;;;;;;;;;5035307;28;20480;-72
2021/03/18 03:21:56;;;;;;;14.53;7.73;;;;;;;;;;5034841;28;20457;-72
2021/03/18 03:24:22;;;;;;;12.50;7.20;;;;;;;;;;5035025;28;20829;-71
2021/03/18 03:26:48;;;;;;;11.77;7.03;;;;;;;;;;5034147;28;20465;-71
2021/03/18 03:29:15;;;;;;;14.57;7.97;;;;;;;;;;5025986;28;20456;-71
2021/03/18 03:31:41;;;;;;;17.60;7.37;;;;;;;;;;5033478;28;20957;-71
2021/03/18 03:34:07;;;;;;;14.77;8.13;;;;;;;;;;5034815;28;20411;-72
2021/03/18 03:36:34;;;;;;;14.00;7.73;;;;;;;;;;5033722;28;20438;-71
2021/03/18 03:39:00;;;;;;;13.73;6.73;;;;;;;;;;5034957;28;20416;-72
2021/03/18 03:41:26;;;;;;;13.13;6.60;;;;;;;;;;5033617;28;20539;-71
2021/03/18 03:43:52;;;;;;;16.17;7.07;;;;;;;;;;5034610;28;20409;-71
2021/03/18 03:46:18;;;;;;;14.10;7.90;;;;;;;;;;5033513;28;20551;-71
2021/03/18 03:48:44;;;;;;;12.23;7.33;;;;;;;;;;5034797;28;20497;-71
2021/03/18 03:51:11;;;;;;;16.77;8.23;;;;;;;;;;5033450;28;20453;-71
2021/03/18 03:53:37;;;;;;;19.70;7.33;;;;;;;;;;5034461;28;20946;-71
2021/03/18 03:56:03;;;;;;;18.63;9.70;;;;;;;;;;5033753;28;20516;-71
2021/03/18 03:58:29;;;;;;;19.77;9.77;;;;;;;;;;5034446;28;20775;-71
2021/03/18 04:00:57;;;;;;;15.27;8.23;;;;;;;;;;5033027;28;20515;-71
2021/03/18 04:03:24;;;;;;;15.13;7.60;;;;;;;;;;5030982;28;20785;-71
2021/03/18 04:05:52;;;;;;;12.10;7.80;;;;;;;;;;5032932;28;20462;-71
2021/03/18 04:08:22;;;;;;;16.77;8.30;;;;;;;;;;5034202;28;20410;-71
2021/03/18 04:10:48;;;;;;;16.90;8.50;;;;;;;;;;5033354;28;20945;-71
2021/03/18 04:13:15;;;;;;;17.00;8.70;;;;;;;;;;5034224;28;20410;-71
2021/03/18 04:15:42;;;;;;;13.23;7.87;;;;;;;;;;5034208;28;20914;-71
2021/03/18 04:18:09;;;;;;;17.07;8.97;;;;;;;;;;5031352;28;20798;-71
2021/03/18 04:20:37;;;;;;;14.97;9.77;;;;;;;;;;5033933;28;20446;-71
2021/03/18 04:23:04;;;;;;;14.77;8.27;;;;;;;;;;5033020;28;20443;-71
2021/03/18 04:25:31;;;;;;;16.30;9.03;;;;;;;;;;5033860;28;20473;-71
2021/03/18 04:27:58;;;;;;;17.53;9.03;;;;;;;;;;5029824;28;20480;-72
2021/03/18 04:30:25;;;;;;;15.47;7.50;;;;;;;;;;5019358;28;20786;-71
2021/03/18 04:32:52;;;;;;;15.83;8.63;;;;;;;;;;5032405;28;20786;-71
2021/03/18 04:35:18;;;;;;;16.30;8.67;;;;;;;;;;5031953;28;20439;-72
2021/03/18 04:37:45;;;;;;;19.57;9.13;;;;;;;;;;5032648;28;20457;-71
2021/03/18 04:40:13;;;;;;;17.00;8.57;;;;;;;;;;5033531;28;20480;-73
2021/03/18 04:42:40;;;;;;;17.50;10.20;;;;;;;;;;5032358;28;20961;-73
2021/03/18 04:45:07;;;;;;;15.53;9.00;;;;;;;;;;5033673;28;20414;-73
2021/03/18 04:47:34;;;;;;;19.43;9.43;;;;;;;;;;5031361;28;20431;-73
2021/03/18 04:50:01;;;;;;;16.63;9.23;;;;;;;;;;5033497;28;20441;-73
2021/03/18 04:52:27;;;;;;;15.80;9.60;;;;;;;;;;5032790;28;20915;-73
2021/03/18 04:54:53;;;;;;;18.80;8.87;;;;;;;;;;5033359;28;20404;-73
2021/03/18 04:57:21;;;;;;;16.63;8.83;;;;;;;;;;5032388;28;20433;-73
2021/03/18 04:59:48;;;;;;;17.40;9.03;;;;;;;;;;5033396;28;20407;-72
2021/03/18 05:02:14;;;;;;;17.20;9.07;;;;;;;;;;5031295;28;20456;-72
2021/03/18 05:04:41;;;;;;;18.40;9.63;;;;;;;;;;5033332;28;20525;-72
2021/03/18 05:07:08;;;;;;;12.47;8.23;;;;;;;;;;5032238;28;20463;-72
2021/03/18 05:09:34;;;;;;;21.80;10.63;;;;;;;;;;5033326;28;20472;-72
2021/03/18 05:12:01;;;;;;;14.10;8.50;;;;;;;;;;5032156;28;20439;-72
2021/03/18 05:14:27;;;;;;;16.23;10.20;;;;;;;;;;5032042;28;20455;-73
2021/03/18 05:16:53;;;;;;;19.47;10.53;;;;;;;;;;5032069;28;20428;-72
2021/03/18 05:19:20;;;;;;;24.90;11.30;;;;;;;;;;5033416;28;20475;-72
2021/03/18 05:21:46;;;;;;;16.97;9.40;;;;;;;;;;5029578;28;20457;-72
2021/03/18 05:24:13;;;;;;;17.20;9.00;;;;;;;;;;5033191;28;20413;-72
2021/03/18 05:26:40;;;;;;;23.47;11.00;;;;;;;;;;5032188;28;20452;-72
2021/03/18 05:29:06;;;;;;;20.40;10.63;;;;;;;;;;5020646;28;20438;-73
2021/03/18 05:31:32;;;;;;;17.70;9.10;;;;;;;;;;5013245;28;20436;-72
2021/03/18 05:33:59;;;;;;;19.30;10.37;;;;;;;;;;5032221;28;20434;-72
2021/03/18 05:36:25;;;;;;;17.07;9.27;;;;;;;;;;5033759;28;20412;-72
2021/03/18 05:38:51;;;;;;;18.40;10.50;;;;;;;;;;5035863;28;20437;-72
2021/03/18 05:41:19;;;;;;;26.60;10.33;;;;;;;;;;5036917;28;20455;-72
2021/03/18 05:43:45;;;;;;;18.20;9.90;;;;;;;;;;5035833;28;20429;-72
2021/03/18 05:46:18;;;;;;;14.13;10.33;;;;;;;;;;5036363;28;20549;-71
2021/03/18 05:48:45;;;;;;;17.50;11.50;;;;;;;;;;5033385;28;20433;-71
2021/03/18 05:51:14;;;;;;;21.03;10.83;;;;;;;;;;5037128;28;20448;-69
2021/03/18 05:53:42;;;;;;;16.60;9.90;;;;;;;;;;5036096;28;20442;-71
2021/03/18 05:56:09;;;;;;;19.33;11.23;;;;;;;;;;5037950;28;20504;-71
2021/03/18 05:58:35;;;;;;;17.50;9.67;;;;;;;;;;5035465;28;20432;-71
2021/03/18 06:01:01;;;;;;;20.30;9.10;;;;;;;;;;5038171;28;20948;-71
2021/03/18 06:03:27;;;;;;;19.70;11.33;;;;;;;;;;5033939;28;20511;-71
2021/03/18 06:05:53;;;;;;;20.77;10.30;;;;;;;;;;5035285;28;20969;-71
2021/03/18 06:08:20;;;;;;;17.87;10.70;;;;;;;;;;5035541;28;20507;-72
2021/03/18 06:10:46;;;;;;;21.33;10.83;;;;;;;;;;5036292;28;20424;-71
2021/03/18 06:13:12;;;;;;;19.27;11.47;;;;;;;;;;5035194;28;20425;-71
2021/03/18 06:15:38;;;;;;;22.03;12.83;;;;;;;;;;5036234;28;20417;-71
2021/03/18 06:18:05;;;;;;;27.43;12.33;;;;;;;;;;5035112;28;20436;-71
2021/03/18 06:20:31;;;;;;;24.53;13.20;;;;;;;;;;5036035;28;20404;-72
2021/03/18 06:23:01;;;;;;;20.03;12.00;;;;;;;;;;5034277;28;20793;-72
2021/03/18 06:25:35;;;;;;;20.00;12.17;;;;;;;;;;5036523;28;20465;-72
2021/03/18 06:28:21;;;;;;;16.87;9.23;;;;;;;;;;5030048;28;20481;-71
2021/03/18 06:31:07;;;;;;;23.67;12.43;;;;;;;;;;5016334;28;20457;-71
2021/03/18 06:33:34;;;;;;;31.03;13.03;;;;;;;;;;5028898;28;20435;-71
2021/03/18 06:36:01;;;;;;;25.40;12.50;;;;;;;;;;5035963;28;20402;-71
2021/03/18 06:38:28;;;;;;;19.30;11.37;;;;;;;;;;5034821;28;20428;-70
2021/03/18 06:40:54;;;;;;;20.90;11.00;;;;;;;;;;5035750;28;20425;-72
2021/03/18 06:43:34;;;;;;;20.33;12.37;;;;;;;;;;5023017;28;20510;-70
2021/03/18 06:46:12;;;;;;;24.60;12.60;;;;;;;;;;5015927;28;20481;-72
2021/03/18 06:48:38;;;;;;;26.63;13.43;;;;;;;;;;5028085;28;20438;-71
2021/03/18 06:51:15;;;;;;;20.90;11.57;;;;;;;;;;5035533;28;20418;-71
2021/03/18 06:53:41;;;;;;;18.60;11.87;;;;;;;;;;5034598;28;20749;-71
2021/03/18 06:56:18;;;;;;;23.70;11.43;;;;;;;;;;5035754;28;20481;-70
2021/03/18 06:58:44;;;;;;;24.37;12.93;;;;;;;;;;5034683;28;20792;-71
2021/03/18 07:01:10;;;;;;;23.77;11.90;;;;;;;;;;5034836;28;21092;-71
2021/03/18 07:03:38;;;;;;;22.70;13.23;;;;;;;;;;5034919;28;20429;-71
2021/03/18 07:06:05;;;;;;;29.17;12.73;;;;;;;;;;5035898;28;20456;-71
2021/03/18 07:08:38;;;;;;;30.37;13.93;;;;;;;;;;5034596;28;20428;-71
2021/03/18 07:11:16;;;;;;;24.67;15.07;;;;;;;;;;5035370;28;20421;-71
2021/03/18 07:13:42;;;;;;;27.13;13.80;;;;;;;;;;5034069;28;20423;-71
2021/03/18 07:16:09;;;;;;;20.70;12.97;;;;;;;;;;5035730;28;20425;-71
2021/03/18 07:18:38;;;;;;;23.20;12.33;;;;;;;;;;5034391;28;20428;-71
2021/03/18 07:21:11;;;;;;;20.50;12.53;;;;;;;;;;5034208;28;20556;-71
2021/03/18 07:23:38;;;;;;;23.67;12.17;;;;;;;;;;5035016;28;20831;-72
2021/03/18 07:26:12;;;;;;;23.93;14.10;;;;;;;;;;5035850;28;20539;-71
2021/03/18 07:28:38;;;;;;;24.97;13.00;;;;;;;;;;5025403;28;20460;-72
2021/03/18 07:31:04;;;;;;;21.20;12.37;;;;;;;;;;5015320;28;20452;-71
2021/03/18 07:33:31;;;;;;;22.30;12.57;;;;;;;;;;5023747;28;20430;-70
2021/03/18 07:35:58;;;;;;;21.33;12.50;;;;;;;;;;5034842;28;20773;-71
2021/03/18 07:38:24;;;;;;;22.10;12.37;;;;;;;;;;5033605;28;20437;-71
2021/03/18 07:40:50;;;;;;;21.93;12.87;;;;;;;;;;5033347;28;22117;-72
2021/03/18 07:43:16;;;;;;;22.57;13.50;;;;;;;;;;5026972;28;20441;-70
2021/03/18 07:45:43;;;;;;;26.40;12.70;;;;;;;;;;5032936;28;20482;-69
2021/03/18 07:48:11;;;;;;;19.43;11.13;;;;;;;;;;5026194;28;20426;-72
2021/03/18 07:50:39;;;;;;;21.87;11.80;;;;;;;;;;5026928;28;20506;-72
2021/03/18 07:53:07;;;;;;;24.50;13.00;;;;;;;;;;5031498;28;20446;-72
2021/03/18 07:55:34;;;;;;;20.50;12.23;;;;;;;;;;5021477;28;20431;-70
2021/03/18 07:58:01;;;;;;;24.90;13.27;;;;;;;;;;5017146;28;20545;-72
2021/03/18 08:00:31;;;;;;;18.50;12.13;;;;;;;;;;5024444;28;20449;-71
2021/03/18 08:03:28;;;;;;;18.40;12.37;;;;;;;;;;5021375;28;20433;-70
2021/03/18 08:05:54;;;;;;;20.83;12.10;;;;;;;;;;5025168;28;20505;-75
2021/03/18 08:08:32;;;;;;;20.77;12.60;;;;;;;;;;5024639;28;20429;-74
2021/03/18 08:11:05;;;;;;;17.53;10.93;;;;;;;;;;5025905;28;20973;-73
2021/03/18 08:13:33;;;;;;;20.93;12.23;;;;;;;;;;5026742;28;20429;-74
2021/03/18 08:16:00;;;;;;;19.40;12.93;;;;;;;;;;5032747;28;20513;-73
2021/03/18 08:18:26;;;;;;;18.30;11.13;;;;;;;;;;5029505;28;20523;-74
2021/03/18 08:20:52;;;;;;;21.90;12.70;;;;;;;;;;5027779;28;20443;-71
2021/03/18 08:23:27;;;;;;;21.13;11.43;;;;;;;;;;5028205;28;20447;-71
2021/03/18 08:26:00;;;;;;;19.43;12.03;;;;;;;;;;5033148;28;20460;-71
2021/03/18 08:28:41;;;;;;;18.70;11.13;;;;;;;;;;5028472;28;20489;-71
2021/03/18 08:31:09;;;;;;;16.67;10.53;;;;;;;;;;5023608;28;20449;-71
2021/03/18 08:33:47;;;;;;;16.00;10.10;;;;;;;;;;5024815;28;20835;-72
2021/03/18 08:36:28;;;;;;;19.47;10.07;;;;;;;;;;5029762;28;20473;-71
2021/03/18 08:38:56;;;;;;;16.33;10.07;;;;;;;;;;5025034;28;20823;-71
2021/03/18 08:41:32;;;;;;;24.57;11.30;;;;;;;;;;5032450;28;20533;-71
2021/03/18 08:44:18;;;;;;;16.47;9.70;;;;;;;;;;5031510;28;20922;-71
2021/03/18 08:46:53;;;;;;;19.17;10.90;;;;;;;;;;5019271;28;20554;-71
2021/03/18 08:49:39;;;;;;;15.53;9.60;;;;;;;;;;5030491;28;20430;-71
2021/03/18 08:52:26;;;;;;;15.83;10.47;;;;;;;;;;5030678;28;20894;-71
2021/03/18 08:54:52;;;;;;;18.83;10.90;;;;;;;;;;4997585;28;20516;-71
2021/03/18 08:57:21;;;;;;;19.17;10.83;;;;;;;;;;5030660;28;20864;-70
2021/03/18 08:59:48;;;;;;;18.60;9.30;;;;;;;;;;5027376;28;20440;-71
2021/03/18 09:02:15;;;;;;;18.70;11.53;;;;;;;;;;5028451;28;20445;-71
2021/03/18 09:04:43;;;;;;;18.33;10.47;;;;;;;;;;5029306;28;20443;-71
2021/03/18 09:07:10;;;;;;;14.53;10.47;;;;;;;;;;5028420;28;20455;-70
2021/03/18 09:09:36;;;;;;;19.00;11.17;;;;;;;;;;5011811;28;20427;-71
2021/03/18 09:12:03;;;;;;;18.33;10.90;;;;;;;;;;5020957;28;20453;-70
2021/03/18 09:14:29;;;;;;;18.13;11.13;;;;;;;;;;5025280;28;20838;-70
2021/03/18 09:17:09;;;;;;;15.97;9.87;;;;;;;;;;5030250;28;20431;-70
2021/03/18 09:19:36;;;;;;;16.07;9.67;;;;;;;;;;5025777;28;20473;-70
2021/03/18 09:22:02;;;;;;;23.10;9.23;;;;;;;;;;5023548;28;20459;-71
2021/03/18 09:24:38;;;;;;;13.40;10.20;;;;;;;;;;5027469;28;20469;-72
2021/03/18 09:27:06;;;;;;;14.77;9.10;;;;;;;;;;5028005;28;21042;-72
2021/03/18 09:29:32;;;;;;;14.47;9.77;;;;;;;;;;5025050;28;20525;-71
2021/03/18 09:32:02;;;;;;;18.87;10.10;;;;;;;;;;5029357;28;20844;-71
2021/03/18 09:34:39;;;;;;;15.80;9.20;;;;;;;;;;5025390;28;20507;-71
2021/03/18 09:37:05;;;;;;;15.57;10.13;;;;;;;;;;5029717;28;20435;-71
2021/03/18 09:39:31;;;;;;;20.53;10.87;;;;;;;;;;5029495;28;20434;-71
2021/03/18 09:41:59;;;;;;;15.30;8.60;;;;;;;;;;5030882;28;20448;-71
2021/03/18 09:44:27;;;;;;;16.90;10.00;;;;;;;;;;5029946;28;21017;-71
2021/03/18 09:46:55;;;;;;;20.13;10.83;;;;;;;;;;5029461;28;21148;-71
2021/03/18 09:49:27;;;;;;;20.10;10.87;;;;;;;;;;5025740;28;20942;-71
2021/03/18 09:51:54;;;;;;;19.07;10.53;;;;;;;;;;5030644;28;20434;-71
2021/03/18 09:54:22;;;;;;;17.97;10.40;;;;;;;;;;5028212;28;20518;-71
2021/03/18 09:56:51;;;;;;;19.20;11.40;;;;;;;;;;5029144;28;20510;-71
2021/03/18 09:59:18;;;;;;;16.83;11.23;;;;;;;;;;5030038;28;20438;-71
2021/03/18 10:01:44;;;;;;;21.23;12.03;;;;;;;;;;5021308;28;20443;-71
2021/03/18 10:04:12;;;;;;;19.07;10.60;;;;;;;;;;5024762;28;20451;-71
2021/03/18 10:06:47;;;;;;;23.60;11.20;;;;;;;;;;5020237;28;20933;-70
2021/03/18 10:09:15;;;;;;;17.97;11.90;;;;;;;;;;5019072;28;20866;-70
2021/03/18 10:11:43;;;;;;;16.60;10.37;;;;;;;;;;5029504;28;20439;-72
2021/03/18 10:14:09;;;;;;;17.73;11.30;;;;;;;;;;5024926;28;20509;-71
2021/03/18 10:16:36;;;;;;;15.73;9.87;;;;;;;;;;5030431;28;20420;-71
2021/03/18 10:19:03;;;;;;;15.67;9.83;;;;;;;;;;5028844;28;20446;-71
2021/03/18 10:21:31;;;;;;;15.40;9.37;;;;;;;;;;5024360;28;20457;-71
2021/03/18 10:23:57;;;;;;;13.23;9.47;;;;;;;;;;5031521;28;20788;-71
2021/03/18 10:26:23;;;;;;;10.90;8.27;;;;;;;;;;5030282;28;20467;-71
2021/03/18 10:28:59;;;;;;;16.20;9.53;;;;;;;;;;5032711;28;20447;-71
2021/03/18 10:31:26;;;;;;;13.17;8.80;;;;;;;;;;5029106;28;20844;-71
2021/03/18 10:33:52;;;;;;;14.50;8.63;;;;;;;;;;5032422;28;20524;-71
2021/03/18 10:36:31;;;;;;;16.27;8.07;;;;;;;;;;5033542;28;20441;-71
2021/03/18 10:38:59;;;;;;;11.50;7.50;;;;;;;;;;5018144;28;20872;-71
2021/03/18 10:41:25;;;;;;;9.73;6.83;;;;;;;;;;5032360;28;20504;-71
2021/03/18 10:43:51;;;;;;;10.80;7.17;;;;;;;;;;5034360;28;20429;-70
2021/03/18 10:46:18;;;;;;;12.30;7.43;;;;;;;;;;5031719;28;20500;-70
2021/03/18 10:48:47;;;;;;;13.93;7.37;;;;;;;;;;5029073;28;20431;-70
2021/03/18 10:51:15;;;;;;;10.80;6.20;;;;;;;;;;5026031;28;20465;-70
2021/03/18 10:53:42;;;;;;;14.70;7.17;;;;;;;;;;5037588;28;20505;-71
2021/03/18 10:56:12;;;;;;;11.10;6.47;;;;;;;;;;5046680;28;20432;-71
2021/03/18 10:58:39;;;;;;;11.23;6.10;;;;;;;;;;5050394;28;20422;-71
2021/03/18 11:01:09;;;;;;;9.17;6.10;;;;;;;;;;5046692;28;20463;-71
2021/03/18 11:03:36;;;;;;;10.20;5.83;;;;;;;;;;5036219;28;20442;-70
2021/03/18 11:06:22;;;;;;;9.10;5.53;;;;;;;;;;5030250;28;20452;-70
2021/03/18 11:08:53;;;;;;;14.10;5.93;;;;;;;;;;5030493;28;20909;-70
2021/03/18 11:11:24;;;;;;;9.57;5.20;;;;;;;;;;5025983;28;20470;-69
2021/03/18 11:13:51;;;;;;;12.33;5.60;;;;;;;;;;5030141;28;20438;-69
2021/03/18 11:16:22;;;;;;;10.30;6.37;;;;;;;;;;5024058;28;20827;-69
2021/03/18 11:18:49;;;;;;;10.17;6.30;;;;;;;;;;5031391;28;20994;-71
2021/03/18 11:21:23;;;;;;;11.53;6.13;;;;;;;;;;5031041;28;20544;-72
2021/03/18 11:23:50;;;;;;;9.83;6.30;;;;;;;;;;5029833;28;20434;-71
2021/03/18 11:26:18;;;;;;;12.07;7.27;;;;;;;;;;5028568;28;20977;-69
2021/03/18 11:28:49;;;;;;;13.90;8.77;;;;;;;;;;5032400;28;20429;-71
2021/03/18 11:31:16;;;;;;;12.97;7.70;;;;;;;;;;5032402;28;20529;-70
2021/03/18 11:33:42;;;;;;;11.07;7.40;;;;;;;;;;5033237;28;20425;-71
2021/03/18 11:36:08;;;;;;;13.97;8.50;;;;;;;;;;5029650;28;20425;-71
2021/03/18 11:38:34;;;;;;;10.03;6.60;;;;;;;;;;5029463;28;20502;-71
2021/03/18 11:41:01;;;;;;;10.40;7.00;;;;;;;;;;5025605;28;20456;-71
2021/03/18 11:43:27;;;;;;;10.23;7.80;;;;;;;;;;5032872;28;20426;-71
2021/03/18 11:45:54;;;;;;;11.50;7.03;;;;;;;;;;5030238;28;20517;-71
2021/03/18 11:48:20;;;;;;;14.77;7.07;;;;;;;;;;5033221;28;20410;-71
2021/03/18 11:50:47;;;;;;;11.73;7.00;;;;;;;;;;5032383;28;21011;-71
2021/03/18 11:53:13;;;;;;;14.50;7.27;;;;;;;;;;5026969;28;20434;-71
2021/03/18 11:55:39;;;;;;;12.17;7.97;;;;;;;;;;5018533;28;20811;-71
2021/03/18 11:58:05;;;;;;;10.20;6.23;;;;;;;;;;5026742;28;20428;-71
2021/03/18 12:00:33;;;;;;;13.25;8.30;;;;;;;;;;5021715;28;20478;-71
2021/03/18 12:03:01;;;;;;;13.20;7.33;;;;;;;;;;5030931;28;20863;-70
2021/03/18 12:05:27;;;;;;;12.40;7.83;;;;;;;;;;5024637;28;20469;-70
2021/03/18 12:07:53;;;;;;;11.07;7.10;;;;;;;;;;5030945;28;20997;-72
2021/03/18 12:10:19;;;;;;;9.63;6.23;;;;;;;;;;5025805;28;22509;-72
2021/03/18 12:12:46;;;;;;;9.77;6.00;;;;;;;;;;5025718;28;20407;-71
2021/03/18 12:15:13;;;;;;;10.50;6.73;;;;;;;;;;5027039;28;20420;-70
2021/03/18 12:17:39;;;;;;;10.70;7.63;;;;;;;;;;5027448;28;20463;-71
2021/03/18 12:20:08;;;;;;;11.67;6.50;;;;;;;;;;5027143;28;20429;-72
2021/03/18 12:22:34;;;;;;;13.73;6.00;;;;;;;;;;5031066;28;20457;-70
2021/03/18 12:25:00;;;;;;;10.10;6.17;;;;;;;;;;5027897;28;20451;-70
2021/03/18 12:27:27;;;;;;;10.93;6.37;;;;;;;;;;5029564;28;20930;-71
2021/03/18 12:29:53;;;;;;;8.30;6.40;;;;;;;;;;5029381;28;20431;-70
2021/03/18 12:32:19;;;;;;;11.53;5.70;;;;;;;;;;5020796;28;20445;-71
2021/03/18 12:34:45;;;;;;;8.47;5.60;;;;;;;;;;5023919;28;20405;-70
2021/03/18 12:37:11;;;;;;;8.83;5.13;;;;;;;;;;5025849;28;20943;-70
2021/03/18 12:39:37;;;;;;;12.07;6.53;;;;;;;;;;5030680;28;20502;-70
2021/03/18 12:42:04;;;;;;;9.73;4.40;;;;;;;;;;5026838;28;20448;-70
2021/03/18 12:44:30;;;;;;;18.03;5.53;;;;;;;;;;5027554;28;20498;-70
2021/03/18 12:46:56;;;;;;;5.37;3.67;;;;;;;;;;5026391;28;20801;-70
2021/03/18 12:49:23;;;;;;;7.40;4.47;;;;;;;;;;5026304;28;20499;-71
2021/03/18 12:51:49;;;;;;;8.50;4.10;;;;;;;;;;5030987;28;20450;-72
2021/03/18 12:54:15;;;;;;;8.60;5.60;;;;;;;;;;5031970;28;20578;-69
2021/03/18 12:56:41;;;;;;;14.83;5.33;;;;;;;;;;5031232;28;20447;-69
2021/03/18 12:59:07;;;;;;;11.40;4.80;;;;;;;;;;5031230;28;20423;-71
2021/03/18 13:01:33;;;;;;;6.60;4.30;;;;;;;;;;5030896;28;20448;-71
2021/03/18 13:04:00;;;;;;;6.80;4.27;;;;;;;;;;5029546;28;20471;-71
2021/03/18 13:06:26;;;;;;;9.30;4.27;;;;;;;;;;5029052;28;20472;-71
2021/03/18 13:08:52;;;;;;;5.30;3.93;;;;;;;;;;5030917;28;20425;-70
2021/03/18 13:11:18;;;;;;;6.10;3.70;;;;;;;;;;5030980;28;20475;-70
2021/03/18 13:13:45;;;;;;;6.67;4.77;;;;;;;;;;5031353;28;20418;-70
2021/03/18 13:16:12;;;;;;;9.20;4.40;;;;;;;;;;5029671;28;20988;-70
2021/03/18 13:18:38;;;;;;;10.93;4.40;;;;;;;;;;5034229;28;20569;-70
2021/03/18 13:21:04;;;;;;;6.70;4.10;;;;;;;;;;5020408;28;20453;-71
2021/03/18 13:23:31;;;;;;;6.10;3.77;;;;;;;;;;5027710;28;20430;-71
2021/03/18 13:25:57;;;;;;;9.90;5.10;;;;;;;;;;5025158;28;20830;-71
2021/03/18 13:28:24;;;;;;;6.77;4.40;;;;;;;;;;5026967;28;20435;-71
2021/03/18 13:30:50;;;;;;;8.70;5.10;;;;;;;;;;5025656;28;20448;-71
2021/03/18 13:33:16;;;;;;;7.00;5.10;;;;;;;;;;5025789;28;20441;-70
2021/03/18 13:35:42;;;;;;;9.03;4.30;;;;;;;;;;5030689;28;20790;-71
2021/03/18 13:38:09;;;;;;;9.40;5.10;;;;;;;;;;5026097;28;20944;-71
2021/03/18 13:40:38;;;;;;;8.07;5.27;;;;;;;;;;5024964;28;20912;-69
2021/03/18 13:43:04;;;;;;;7.63;4.80;;;;;;;;;;5023229;28;20430;-71
2021/03/18 13:45:30;;;;;;;10.30;5.33;;;;;;;;;;5026747;28;20527;-71
2021/03/18 13:47:56;;;;;;;7.53;4.33;;;;;;;;;;5032790;28;20421;-69
2021/03/18 13:50:22;;;;;;;9.13;4.33;;;;;;;;;;5031588;28;20431;-70
2021/03/18 13:52:49;;;;;;;9.93;4.53;;;;;;;;;;5032392;28;20427;-72
2021/03/18 13:55:15;;;;;;;8.60;3.90;;;;;;;;;;5027330;28;20425;-72
2021/03/18 13:57:41;;;;;;;7.03;5.10;;;;;;;;;;5027500;28;20571;-70
2021/03/18 14:00:08;;;;;;;6.57;4.77;;;;;;;;;;5031772;28;20437;-72
2021/03/18 14:02:34;;;;;;;9.30;4.87;;;;;;;;;;5029753;28;20458;-71
2021/03/18 14:05:00;;;;;;;7.33;4.50;;;;;;;;;;5032523;28;20424;-71
2021/03/18 14:07:26;;;;;;;8.30;4.70;;;;;;;;;;5035858;28;20557;-70
2021/03/18 14:10:05;;;;;;;10.07;6.13;;;;;;;;;;5033806;28;20422;-70
2021/03/18 14:12:33;;;;;;;9.03;5.50;;;;;;;;;;5021626;28;20465;-71
2021/03/18 14:15:05;;;;;;;11.60;5.20;;;;;;;;;;5021378;28;20415;-72
2021/03/18 14:17:31;;;;;;;12.30;5.80;;;;;;;;;;5032804;28;20921;-71
2021/03/18 14:19:57;;;;;;;8.50;4.70;;;;;;;;;;5033880;28;20437;-70
2021/03/18 14:22:24;;;;;;;8.53;5.70;;;;;;;;;;5032598;28;20465;-71
2021/03/18 14:24:50;;;;;;;8.77;5.97;;;;;;;;;;5035421;28;20803;-71
2021/03/18 14:27:17;;;;;;;9.13;5.47;;;;;;;;;;5030164;28;20561;-71
2021/03/18 14:29:43;;;;;;;9.67;5.63;;;;;;;;;;5034735;28;20428;-71
2021/03/18 14:32:09;;;;;;;16.30;5.10;;;;;;;;;;5024413;28;20483;-71
2021/03/18 14:34:35;;;;;;;12.40;6.53;;;;;;;;;;5028466;28;20423;-71